sensor_id;sensor_type;location;lat;lon;timestamp;P1;durP1;ratioP1;P2;durP2;ratioP2
10687;SDS011;5392;42.688;23.298;2024-01-25T00:01:08;30.25;;;12.85;;
10687;SDS011;5392;42.688;23.298;2024-01-25T00:03:33;31.77;;;13.70;;
10687;SDS011;5392;42.688;23.298;2024-01-25T00:06:00;25.30;;;12.63;;
10687;SDS011;5392;42.688;23.298;2024-01-25T00:08:25;22.25;;;11.35;;
10687;SDS011;5392;42.688;23.298;2024-01-25T00:10:51;24.02;;;12.00;;
10687;SDS011;5392;42.688;23.298;2024-01-25T00:13:16;23.27;;;10.23;;
10687;SDS011;5392;42.688;23.298;2024-01-25T00:15:42;24.35;;;10.57;;
10687;SDS011;5392;42.688;23.298;2024-01-25T00:18:07;24.33;;;11.75;;
10687;SDS011;5392;42.688;23.298;2024-01-25T00:20:33;20.95;;;11.52;;
10687;SDS011;5392;42.688;23.298;2024-01-25T00:22:58;22.52;;;10.85;;
10687;SDS011;5392;42.688;23.298;2024-01-25T00:25:24;24.77;;;11.45;;
10687;SDS011;5392;42.688;23.298;2024-01-25T00:27:50;20.85;;;10.85;;
10687;SDS011;5392;42.688;23.298;2024-01-25T00:30:15;21.02;;;10.02;;
10687;SDS011;5392;42.688;23.298;2024-01-25T00:32:41;21.50;;;11.82;;
10687;SDS011;5392;42.688;23.298;2024-01-25T00:35:06;21.40;;;11.25;;
10687;SDS011;5392;42.688;23.298;2024-01-25T00:37:35;20.27;;;11.90;;
10687;SDS011;5392;42.688;23.298;2024-01-25T00:40:01;20.83;;;11.32;;
10687;SDS011;5392;42.688;23.298;2024-01-25T00:42:26;23.60;;;11.55;;
10687;SDS011;5392;42.688;23.298;2024-01-25T00:44:54;22.48;;;11.05;;
10687;SDS011;5392;42.688;23.298;2024-01-25T00:47:19;19.55;;;10.35;;
10687;SDS011;5392;42.688;23.298;2024-01-25T00:49:45;20.90;;;10.88;;
10687;SDS011;5392;42.688;23.298;2024-01-25T00:52:11;23.92;;;11.35;;
10687;SDS011;5392;42.688;23.298;2024-01-25T00:54:37;22.83;;;10.73;;
10687;SDS011;5392;42.688;23.298;2024-01-25T00:57:02;19.88;;;9.85;;
10687;SDS011;5392;42.688;23.298;2024-01-25T00:59:29;17.58;;;9.55;;
10687;SDS011;5392;42.688;23.298;2024-01-25T01:01:55;17.35;;;9.60;;
10687;SDS011;5392;42.688;23.298;2024-01-25T01:04:23;19.13;;;9.27;;
10687;SDS011;5392;42.688;23.298;2024-01-25T01:06:49;20.08;;;9.30;;
10687;SDS011;5392;42.688;23.298;2024-01-25T01:09:14;14.57;;;7.65;;
10687;SDS011;5392;42.688;23.298;2024-01-25T01:11:40;16.08;;;8.75;;
10687;SDS011;5392;42.688;23.298;2024-01-25T01:14:05;14.98;;;7.65;;
10687;SDS011;5392;42.688;23.298;2024-01-25T01:16:32;14.48;;;8.45;;
10687;SDS011;5392;42.688;23.298;2024-01-25T01:18:58;17.05;;;7.78;;
10687;SDS011;5392;42.688;23.298;2024-01-25T01:21:30;14.15;;;7.28;;
10687;SDS011;5392;42.688;23.298;2024-01-25T01:23:56;15.82;;;7.47;;
10687;SDS011;5392;42.688;23.298;2024-01-25T01:26:21;15.82;;;7.57;;
10687;SDS011;5392;42.688;23.298;2024-01-25T01:28:47;17.10;;;8.48;;
10687;SDS011;5392;42.688;23.298;2024-01-25T01:31:12;19.20;;;9.30;;
10687;SDS011;5392;42.688;23.298;2024-01-25T01:33:39;15.35;;;7.43;;
10687;SDS011;5392;42.688;23.298;2024-01-25T01:36:05;15.02;;;7.97;;
10687;SDS011;5392;42.688;23.298;2024-01-25T01:38:30;16.23;;;7.85;;
10687;SDS011;5392;42.688;23.298;2024-01-25T01:40:56;10.02;;;6.10;;
10687;SDS011;5392;42.688;23.298;2024-01-25T01:43:22;9.80;;;5.90;;
10687;SDS011;5392;42.688;23.298;2024-01-25T01:45:48;8.68;;;5.45;;
10687;SDS011;5392;42.688;23.298;2024-01-25T01:48:14;13.65;;;6.63;;
10687;SDS011;5392;42.688;23.298;2024-01-25T01:50:41;10.93;;;6.07;;
10687;SDS011;5392;42.688;23.298;2024-01-25T01:53:10;10.18;;;5.57;;
10687;SDS011;5392;42.688;23.298;2024-01-25T01:55:36;10.25;;;6.20;;
10687;SDS011;5392;42.688;23.298;2024-01-25T02:00:29;13.18;;;6.32;;
10687;SDS011;5392;42.688;23.298;2024-01-25T02:02:55;10.43;;;5.57;;
10687;SDS011;5392;42.688;23.298;2024-01-25T02:05:23;9.07;;;6.45;;
10687;SDS011;5392;42.688;23.298;2024-01-25T02:07:49;9.50;;;5.95;;
10687;SDS011;5392;42.688;23.298;2024-01-25T02:10:17;11.77;;;6.57;;
10687;SDS011;5392;42.688;23.298;2024-01-25T02:12:42;11.40;;;6.38;;
10687;SDS011;5392;42.688;23.298;2024-01-25T02:15:08;8.95;;;5.05;;
10687;SDS011;5392;42.688;23.298;2024-01-25T02:17:34;6.80;;;4.35;;
10687;SDS011;5392;42.688;23.298;2024-01-25T02:19:59;8.50;;;4.57;;
10687;SDS011;5392;42.688;23.298;2024-01-25T02:22:27;6.75;;;4.32;;
10687;SDS011;5392;42.688;23.298;2024-01-25T02:24:52;12.65;;;6.45;;
10687;SDS011;5392;42.688;23.298;2024-01-25T02:27:18;9.18;;;6.18;;
10687;SDS011;5392;42.688;23.298;2024-01-25T02:29:43;12.07;;;6.40;;
10687;SDS011;5392;42.688;23.298;2024-01-25T02:32:09;9.43;;;4.90;;
10687;SDS011;5392;42.688;23.298;2024-01-25T02:34:34;6.70;;;4.07;;
10687;SDS011;5392;42.688;23.298;2024-01-25T02:37:00;7.15;;;3.80;;
10687;SDS011;5392;42.688;23.298;2024-01-25T02:39:25;8.65;;;4.07;;
10687;SDS011;5392;42.688;23.298;2024-01-25T02:41:51;5.82;;;3.42;;
10687;SDS011;5392;42.688;23.298;2024-01-25T02:44:16;6.43;;;3.38;;
10687;SDS011;5392;42.688;23.298;2024-01-25T02:46:42;5.85;;;2.70;;
10687;SDS011;5392;42.688;23.298;2024-01-25T02:49:09;4.20;;;2.88;;
10687;SDS011;5392;42.688;23.298;2024-01-25T02:51:36;2.47;;;1.90;;
10687;SDS011;5392;42.688;23.298;2024-01-25T02:54:01;2.30;;;1.83;;
10687;SDS011;5392;42.688;23.298;2024-01-25T02:56:27;2.05;;;1.77;;
10687;SDS011;5392;42.688;23.298;2024-01-25T02:58:58;1.75;;;1.27;;
10687;SDS011;5392;42.688;23.298;2024-01-25T03:01:24;2.22;;;1.38;;
10687;SDS011;5392;42.688;23.298;2024-01-25T03:03:50;1.38;;;1.30;;
10687;SDS011;5392;42.688;23.298;2024-01-25T03:06:15;3.22;;;1.50;;
10687;SDS011;5392;42.688;23.298;2024-01-25T03:08:41;2.10;;;1.48;;
10687;SDS011;5392;42.688;23.298;2024-01-25T03:11:06;1.58;;;1.48;;
10687;SDS011;5392;42.688;23.298;2024-01-25T03:13:31;1.00;;;1.00;;
10687;SDS011;5392;42.688;23.298;2024-01-25T03:15:59;1.17;;;0.90;;
10687;SDS011;5392;42.688;23.298;2024-01-25T03:18:24;1.08;;;0.98;;
10687;SDS011;5392;42.688;23.298;2024-01-25T03:20:50;1.15;;;0.85;;
10687;SDS011;5392;42.688;23.298;2024-01-25T03:23:16;0.85;;;0.68;;
10687;SDS011;5392;42.688;23.298;2024-01-25T03:25:42;0.65;;;0.63;;
10687;SDS011;5392;42.688;23.298;2024-01-25T03:28:07;0.65;;;0.65;;
10687;SDS011;5392;42.688;23.298;2024-01-25T03:30:34;1.10;;;0.70;;
10687;SDS011;5392;42.688;23.298;2024-01-25T03:33:00;0.90;;;0.68;;
10687;SDS011;5392;42.688;23.298;2024-01-25T03:35:25;1.00;;;0.82;;
10687;SDS011;5392;42.688;23.298;2024-01-25T03:37:51;0.95;;;0.77;;
10687;SDS011;5392;42.688;23.298;2024-01-25T03:40:17;0.85;;;0.85;;
10687;SDS011;5392;42.688;23.298;2024-01-25T03:42:42;0.88;;;0.75;;
10687;SDS011;5392;42.688;23.298;2024-01-25T03:45:08;1.13;;;0.93;;
10687;SDS011;5392;42.688;23.298;2024-01-25T03:47:33;1.58;;;1.10;;
10687;SDS011;5392;42.688;23.298;2024-01-25T03:49:59;0.80;;;0.75;;
10687;SDS011;5392;42.688;23.298;2024-01-25T03:52:25;0.90;;;0.88;;
10687;SDS011;5392;42.688;23.298;2024-01-25T03:54:50;1.80;;;0.98;;
10687;SDS011;5392;42.688;23.298;2024-01-25T03:57:16;1.23;;;1.10;;
10687;SDS011;5392;42.688;23.298;2024-01-25T03:59:41;1.90;;;1.30;;
10687;SDS011;5392;42.688;23.298;2024-01-25T04:02:07;0.88;;;0.82;;
10687;SDS011;5392;42.688;23.298;2024-01-25T04:04:33;0.93;;;0.90;;
10687;SDS011;5392;42.688;23.298;2024-01-25T04:06:58;2.20;;;1.00;;
10687;SDS011;5392;42.688;23.298;2024-01-25T04:09:24;0.90;;;0.90;;
10687;SDS011;5392;42.688;23.298;2024-01-25T04:11:49;1.85;;;1.17;;
10687;SDS011;5392;42.688;23.298;2024-01-25T04:14:15;1.48;;;0.93;;
10687;SDS011;5392;42.688;23.298;2024-01-25T04:16:41;1.25;;;1.08;;
10687;SDS011;5392;42.688;23.298;2024-01-25T04:19:06;0.93;;;0.93;;
10687;SDS011;5392;42.688;23.298;2024-01-25T04:21:32;1.38;;;0.90;;
10687;SDS011;5392;42.688;23.298;2024-01-25T04:23:57;2.83;;;1.00;;
10687;SDS011;5392;42.688;23.298;2024-01-25T04:26:23;1.40;;;0.90;;
10687;SDS011;5392;42.688;23.298;2024-01-25T04:28:48;3.00;;;1.80;;
10687;SDS011;5392;42.688;23.298;2024-01-25T04:31:14;7.97;;;3.50;;
10687;SDS011;5392;42.688;23.298;2024-01-25T04:33:40;9.68;;;3.10;;
10687;SDS011;5392;42.688;23.298;2024-01-25T04:36:05;6.80;;;3.67;;
10687;SDS011;5392;42.688;23.298;2024-01-25T04:38:31;7.18;;;3.88;;
10687;SDS011;5392;42.688;23.298;2024-01-25T04:40:57;6.18;;;4.10;;
10687;SDS011;5392;42.688;23.298;2024-01-25T04:43:22;5.78;;;3.70;;
10687;SDS011;5392;42.688;23.298;2024-01-25T04:45:48;7.13;;;3.40;;
10687;SDS011;5392;42.688;23.298;2024-01-25T04:48:15;4.45;;;2.53;;
10687;SDS011;5392;42.688;23.298;2024-01-25T04:50:40;4.65;;;2.83;;
10687;SDS011;5392;42.688;23.298;2024-01-25T04:53:06;4.18;;;2.50;;
10687;SDS011;5392;42.688;23.298;2024-01-25T04:55:31;6.10;;;3.55;;
10687;SDS011;5392;42.688;23.298;2024-01-25T04:57:57;4.43;;;3.20;;
10687;SDS011;5392;42.688;23.298;2024-01-25T05:00:22;7.05;;;2.90;;
10687;SDS011;5392;42.688;23.298;2024-01-25T05:02:48;4.35;;;2.13;;
10687;SDS011;5392;42.688;23.298;2024-01-25T05:05:14;4.60;;;2.67;;
10687;SDS011;5392;42.688;23.298;2024-01-25T05:07:40;5.32;;;3.65;;
10687;SDS011;5392;42.688;23.298;2024-01-25T05:10:06;5.75;;;3.42;;
10687;SDS011;5392;42.688;23.298;2024-01-25T05:12:32;3.85;;;2.80;;
10687;SDS011;5392;42.688;23.298;2024-01-25T05:14:58;3.72;;;2.97;;
10687;SDS011;5392;42.688;23.298;2024-01-25T05:17:23;4.10;;;3.63;;
10687;SDS011;5392;42.688;23.298;2024-01-25T05:19:49;5.28;;;3.10;;
10687;SDS011;5392;42.688;23.298;2024-01-25T05:22:14;3.08;;;2.45;;
10687;SDS011;5392;42.688;23.298;2024-01-25T05:24:40;2.42;;;2.22;;
10687;SDS011;5392;42.688;23.298;2024-01-25T05:27:06;4.63;;;2.63;;
10687;SDS011;5392;42.688;23.298;2024-01-25T05:29:31;6.40;;;2.88;;
10687;SDS011;5392;42.688;23.298;2024-01-25T05:31:57;3.65;;;2.60;;
10687;SDS011;5392;42.688;23.298;2024-01-25T05:34:23;5.55;;;2.20;;
10687;SDS011;5392;42.688;23.298;2024-01-25T05:36:49;1.88;;;1.77;;
10687;SDS011;5392;42.688;23.298;2024-01-25T05:39:15;3.25;;;2.40;;
10687;SDS011;5392;42.688;23.298;2024-01-25T05:41:40;4.03;;;2.80;;
10687;SDS011;5392;42.688;23.298;2024-01-25T05:44:06;3.70;;;2.00;;
10687;SDS011;5392;42.688;23.298;2024-01-25T05:46:31;3.97;;;1.85;;
10687;SDS011;5392;42.688;23.298;2024-01-25T05:48:57;3.08;;;2.25;;
10687;SDS011;5392;42.688;23.298;2024-01-25T05:51:22;2.90;;;2.17;;
10687;SDS011;5392;42.688;23.298;2024-01-25T05:53:48;4.05;;;2.10;;
10687;SDS011;5392;42.688;23.298;2024-01-25T05:56:13;3.20;;;2.30;;
10687;SDS011;5392;42.688;23.298;2024-01-25T05:58:39;2.10;;;1.90;;
10687;SDS011;5392;42.688;23.298;2024-01-25T06:01:04;2.50;;;2.30;;
10687;SDS011;5392;42.688;23.298;2024-01-25T06:03:31;2.20;;;2.00;;
10687;SDS011;5392;42.688;23.298;2024-01-25T06:05:56;4.57;;;2.67;;
10687;SDS011;5392;42.688;23.298;2024-01-25T06:08:22;3.78;;;2.33;;
10687;SDS011;5392;42.688;23.298;2024-01-25T06:10:47;3.22;;;2.17;;
10687;SDS011;5392;42.688;23.298;2024-01-25T06:13:13;4.22;;;2.72;;
10687;SDS011;5392;42.688;23.298;2024-01-25T06:15:38;5.35;;;2.90;;
10687;SDS011;5392;42.688;23.298;2024-01-25T06:18:04;6.07;;;3.75;;
10687;SDS011;5392;42.688;23.298;2024-01-25T06:20:30;3.15;;;2.63;;
10687;SDS011;5392;42.688;23.298;2024-01-25T06:22:55;5.22;;;2.58;;
10687;SDS011;5392;42.688;23.298;2024-01-25T06:25:21;2.95;;;2.22;;
10687;SDS011;5392;42.688;23.298;2024-01-25T06:27:47;5.57;;;3.25;;
10687;SDS011;5392;42.688;23.298;2024-01-25T06:30:13;6.90;;;4.15;;
10687;SDS011;5392;42.688;23.298;2024-01-25T06:32:39;5.50;;;3.65;;
10687;SDS011;5392;42.688;23.298;2024-01-25T06:35:05;6.47;;;4.05;;
10687;SDS011;5392;42.688;23.298;2024-01-25T06:37:31;13.00;;;4.63;;
10687;SDS011;5392;42.688;23.298;2024-01-25T06:39:56;8.32;;;4.75;;
10687;SDS011;5392;42.688;23.298;2024-01-25T06:42:22;5.10;;;3.50;;
10687;SDS011;5392;42.688;23.298;2024-01-25T06:44:48;7.47;;;4.15;;
10687;SDS011;5392;42.688;23.298;2024-01-25T06:47:13;9.35;;;4.38;;
10687;SDS011;5392;42.688;23.298;2024-01-25T06:49:39;7.15;;;3.45;;
10687;SDS011;5392;42.688;23.298;2024-01-25T06:52:04;5.68;;;3.03;;
10687;SDS011;5392;42.688;23.298;2024-01-25T06:54:30;5.40;;;3.50;;
10687;SDS011;5392;42.688;23.298;2024-01-25T06:56:56;2.70;;;2.10;;
10687;SDS011;5392;42.688;23.298;2024-01-25T06:59:22;4.10;;;2.63;;
10687;SDS011;5392;42.688;23.298;2024-01-25T07:01:48;3.75;;;2.53;;
10687;SDS011;5392;42.688;23.298;2024-01-25T07:04:14;6.88;;;3.50;;
10687;SDS011;5392;42.688;23.298;2024-01-25T07:06:39;5.43;;;3.03;;
10687;SDS011;5392;42.688;23.298;2024-01-25T07:09:05;5.10;;;3.20;;
10687;SDS011;5392;42.688;23.298;2024-01-25T07:11:31;5.60;;;2.15;;
10687;SDS011;5392;42.688;23.298;2024-01-25T07:13:56;3.45;;;2.15;;
10687;SDS011;5392;42.688;23.298;2024-01-25T07:16:22;7.25;;;3.50;;
10687;SDS011;5392;42.688;23.298;2024-01-25T07:18:48;4.32;;;2.55;;
10687;SDS011;5392;42.688;23.298;2024-01-25T07:21:14;5.22;;;2.60;;
10687;SDS011;5392;42.688;23.298;2024-01-25T07:23:39;3.80;;;2.60;;
10687;SDS011;5392;42.688;23.298;2024-01-25T07:26:05;6.57;;;3.00;;
10687;SDS011;5392;42.688;23.298;2024-01-25T07:28:31;4.72;;;2.45;;
10687;SDS011;5392;42.688;23.298;2024-01-25T07:30:57;2.17;;;1.98;;
10687;SDS011;5392;42.688;23.298;2024-01-25T07:33:23;7.10;;;2.35;;
10687;SDS011;5392;42.688;23.298;2024-01-25T07:35:48;6.63;;;3.50;;
10687;SDS011;5392;42.688;23.298;2024-01-25T07:38:14;7.18;;;3.00;;
10687;SDS011;5392;42.688;23.298;2024-01-25T07:40:40;6.30;;;3.10;;
10687;SDS011;5392;42.688;23.298;2024-01-25T07:43:06;5.15;;;2.17;;
10687;SDS011;5392;42.688;23.298;2024-01-25T07:45:32;6.60;;;2.40;;
10687;SDS011;5392;42.688;23.298;2024-01-25T07:47:58;4.40;;;2.25;;
10687;SDS011;5392;42.688;23.298;2024-01-25T07:50:23;4.03;;;2.30;;
10687;SDS011;5392;42.688;23.298;2024-01-25T07:52:49;6.00;;;2.85;;
10687;SDS011;5392;42.688;23.298;2024-01-25T07:55:17;4.35;;;2.30;;
10687;SDS011;5392;42.688;23.298;2024-01-25T07:57:43;10.00;;;3.03;;
10687;SDS011;5392;42.688;23.298;2024-01-25T08:00:09;2.80;;;2.00;;
10687;SDS011;5392;42.688;23.298;2024-01-25T08:02:37;3.95;;;1.70;;
10687;SDS011;5392;42.688;23.298;2024-01-25T08:05:05;9.52;;;2.13;;
10687;SDS011;5392;42.688;23.298;2024-01-25T08:07:31;5.10;;;2.08;;
10687;SDS011;5392;42.688;23.298;2024-01-25T08:09:56;3.50;;;2.70;;
10687;SDS011;5392;42.688;23.298;2024-01-25T08:12:23;3.92;;;2.05;;
10687;SDS011;5392;42.688;23.298;2024-01-25T08:14:50;8.82;;;4.43;;
10687;SDS011;5392;42.688;23.298;2024-01-25T08:17:15;8.65;;;3.20;;
10687;SDS011;5392;42.688;23.298;2024-01-25T08:19:41;3.22;;;1.83;;
10687;SDS011;5392;42.688;23.298;2024-01-25T08:22:06;5.90;;;2.35;;
10687;SDS011;5392;42.688;23.298;2024-01-25T08:24:32;4.18;;;2.30;;
10687;SDS011;5392;42.688;23.298;2024-01-25T08:26:57;7.28;;;2.53;;
10687;SDS011;5392;42.688;23.298;2024-01-25T08:29:23;5.78;;;2.20;;
10687;SDS011;5392;42.688;23.298;2024-01-25T08:31:48;6.32;;;2.15;;
10687;SDS011;5392;42.688;23.298;2024-01-25T08:34:14;4.05;;;2.28;;
10687;SDS011;5392;42.688;23.298;2024-01-25T08:36:40;5.55;;;2.10;;
10687;SDS011;5392;42.688;23.298;2024-01-25T08:39:05;4.75;;;2.28;;
10687;SDS011;5392;42.688;23.298;2024-01-25T08:41:31;2.95;;;1.90;;
10687;SDS011;5392;42.688;23.298;2024-01-25T08:43:56;4.82;;;1.92;;
10687;SDS011;5392;42.688;23.298;2024-01-25T08:46:22;4.68;;;2.10;;
10687;SDS011;5392;42.688;23.298;2024-01-25T08:48:47;8.57;;;2.40;;
10687;SDS011;5392;42.688;23.298;2024-01-25T08:51:13;5.28;;;2.00;;
10687;SDS011;5392;42.688;23.298;2024-01-25T08:53:38;6.05;;;2.80;;
10687;SDS011;5392;42.688;23.298;2024-01-25T08:56:04;10.32;;;2.60;;
10687;SDS011;5392;42.688;23.298;2024-01-25T08:58:30;8.25;;;2.80;;
10687;SDS011;5392;42.688;23.298;2024-01-25T09:00:55;7.47;;;2.22;;
10687;SDS011;5392;42.688;23.298;2024-01-25T09:03:21;3.63;;;2.22;;
10687;SDS011;5392;42.688;23.298;2024-01-25T09:08:13;3.95;;;1.88;;
10687;SDS011;5392;42.688;23.298;2024-01-25T09:10:39;4.07;;;2.30;;
10687;SDS011;5392;42.688;23.298;2024-01-25T09:13:06;5.05;;;2.60;;
10687;SDS011;5392;42.688;23.298;2024-01-25T09:15:31;7.15;;;2.40;;
10687;SDS011;5392;42.688;23.298;2024-01-25T09:17:57;5.78;;;3.17;;
10687;SDS011;5392;42.688;23.298;2024-01-25T09:20:22;6.78;;;2.88;;
10687;SDS011;5392;42.688;23.298;2024-01-25T09:22:48;8.90;;;2.97;;
10687;SDS011;5392;42.688;23.298;2024-01-25T09:25:13;8.85;;;2.72;;
10687;SDS011;5392;42.688;23.298;2024-01-25T09:27:39;5.93;;;3.10;;
10687;SDS011;5392;42.688;23.298;2024-01-25T09:30:05;7.55;;;3.15;;
10687;SDS011;5392;42.688;23.298;2024-01-25T09:32:31;5.65;;;2.45;;
10687;SDS011;5392;42.688;23.298;2024-01-25T09:34:56;7.10;;;3.63;;
10687;SDS011;5392;42.688;23.298;2024-01-25T09:37:22;7.03;;;3.10;;
10687;SDS011;5392;42.688;23.298;2024-01-25T09:39:49;6.25;;;3.50;;
10687;SDS011;5392;42.688;23.298;2024-01-25T09:42:16;5.85;;;3.30;;
10687;SDS011;5392;42.688;23.298;2024-01-25T09:44:43;8.25;;;3.60;;
10687;SDS011;5392;42.688;23.298;2024-01-25T09:47:09;9.73;;;3.80;;
10687;SDS011;5392;42.688;23.298;2024-01-25T09:49:36;8.45;;;3.50;;
10687;SDS011;5392;42.688;23.298;2024-01-25T09:52:02;9.95;;;4.93;;
10687;SDS011;5392;42.688;23.298;2024-01-25T09:54:35;10.13;;;3.83;;
10687;SDS011;5392;42.688;23.298;2024-01-25T09:57:35;8.77;;;4.00;;
10687;SDS011;5392;42.688;23.298;2024-01-25T09:59:54;7.00;;;3.65;;
10687;SDS011;5392;42.688;23.298;2024-01-25T10:02:22;7.15;;;3.50;;
10687;SDS011;5392;42.688;23.298;2024-01-25T10:04:51;10.07;;;4.78;;
10687;SDS011;5392;42.688;23.298;2024-01-25T10:07:36;7.90;;;3.47;;
10687;SDS011;5392;42.688;23.298;2024-01-25T10:10:02;4.90;;;2.42;;
10687;SDS011;5392;42.688;23.298;2024-01-25T10:12:30;4.97;;;3.28;;
10687;SDS011;5392;42.688;23.298;2024-01-25T10:14:56;6.45;;;3.80;;
10687;SDS011;5392;42.688;23.298;2024-01-25T10:17:21;5.35;;;2.95;;
10687;SDS011;5392;42.688;23.298;2024-01-25T10:19:47;7.85;;;2.97;;
10687;SDS011;5392;42.688;23.298;2024-01-25T10:24:39;14.23;;;4.97;;
10687;SDS011;5392;42.688;23.298;2024-01-25T10:29:32;18.17;;;8.27;;
10687;SDS011;5392;42.688;23.298;2024-01-25T10:32:00;8.10;;;4.70;;
10687;SDS011;5392;42.688;23.298;2024-01-25T10:34:27;40.72;;;17.75;;
10687;SDS011;5392;42.688;23.298;2024-01-25T10:36:54;53.28;;;22.30;;
10687;SDS011;5392;42.688;23.298;2024-01-25T10:39:20;37.78;;;16.75;;
10687;SDS011;5392;42.688;23.298;2024-01-25T10:41:46;34.13;;;18.55;;
10687;SDS011;5392;42.688;23.298;2024-01-25T10:44:15;7.32;;;4.45;;
10687;SDS011;5392;42.688;23.298;2024-01-25T10:46:47;4.30;;;2.58;;
10687;SDS011;5392;42.688;23.298;2024-01-25T10:49:13;7.45;;;2.80;;
10687;SDS011;5392;42.688;23.298;2024-01-25T10:51:39;7.90;;;3.00;;
10687;SDS011;5392;42.688;23.298;2024-01-25T10:54:09;4.68;;;3.00;;
10687;SDS011;5392;42.688;23.298;2024-01-25T10:56:43;9.25;;;4.65;;
10687;SDS011;5392;42.688;23.298;2024-01-25T10:59:11;35.80;;;18.08;;
10687;SDS011;5392;42.688;23.298;2024-01-25T11:01:36;26.00;;;12.23;;
10687;SDS011;5392;42.688;23.298;2024-01-25T11:04:02;8.70;;;5.18;;
10687;SDS011;5392;42.688;23.298;2024-01-25T11:06:36;12.02;;;5.75;;
10687;SDS011;5392;42.688;23.298;2024-01-25T11:09:05;7.60;;;4.18;;
10687;SDS011;5392;42.688;23.298;2024-01-25T11:11:31;13.10;;;4.57;;
10687;SDS011;5392;42.688;23.298;2024-01-25T11:13:58;9.38;;;3.85;;
10687;SDS011;5392;42.688;23.298;2024-01-25T11:16:31;5.40;;;3.20;;
10687;SDS011;5392;42.688;23.298;2024-01-25T11:18:59;8.15;;;3.10;;
10687;SDS011;5392;42.688;23.298;2024-01-25T11:24:16;27.85;;;13.02;;
10687;SDS011;5392;42.688;23.298;2024-01-25T11:26:45;19.67;;;12.48;;
10687;SDS011;5392;42.688;23.298;2024-01-25T11:31:45;11.40;;;4.03;;
10687;SDS011;5392;42.688;23.298;2024-01-25T11:34:12;8.02;;;3.60;;
10687;SDS011;5392;42.688;23.298;2024-01-25T11:36:39;6.90;;;3.63;;
10687;SDS011;5392;42.688;23.298;2024-01-25T11:39:05;7.78;;;3.10;;
10687;SDS011;5392;42.688;23.298;2024-01-25T11:41:32;11.35;;;3.17;;
10687;SDS011;5392;42.688;23.298;2024-01-25T11:43:58;8.95;;;3.53;;
10687;SDS011;5392;42.688;23.298;2024-01-25T11:46:23;10.68;;;3.85;;
10687;SDS011;5392;42.688;23.298;2024-01-25T11:48:51;7.68;;;3.60;;
10687;SDS011;5392;42.688;23.298;2024-01-25T11:51:17;10.90;;;3.75;;
10687;SDS011;5392;42.688;23.298;2024-01-25T11:53:42;9.43;;;3.17;;
10687;SDS011;5392;42.688;23.298;2024-01-25T11:56:14;7.22;;;2.95;;
10687;SDS011;5392;42.688;23.298;2024-01-25T11:58:44;9.15;;;3.00;;
10687;SDS011;5392;42.688;23.298;2024-01-25T12:01:11;7.10;;;2.78;;
10687;SDS011;5392;42.688;23.298;2024-01-25T12:03:38;7.68;;;3.28;;
10687;SDS011;5392;42.688;23.298;2024-01-25T12:06:05;12.02;;;3.08;;
10687;SDS011;5392;42.688;23.298;2024-01-25T12:08:31;9.77;;;3.67;;
10687;SDS011;5392;42.688;23.298;2024-01-25T12:11:07;10.00;;;3.72;;
10687;SDS011;5392;42.688;23.298;2024-01-25T12:13:34;11.57;;;4.13;;
10687;SDS011;5392;42.688;23.298;2024-01-25T12:16:09;13.57;;;5.32;;
10687;SDS011;5392;42.688;23.298;2024-01-25T12:18:37;11.85;;;4.25;;
10687;SDS011;5392;42.688;23.298;2024-01-25T12:21:04;10.30;;;3.72;;
10687;SDS011;5392;42.688;23.298;2024-01-25T12:23:34;7.78;;;3.83;;
10687;SDS011;5392;42.688;23.298;2024-01-25T12:26:01;7.88;;;2.92;;
10687;SDS011;5392;42.688;23.298;2024-01-25T12:28:29;7.13;;;3.33;;
10687;SDS011;5392;42.688;23.298;2024-01-25T12:30:55;10.43;;;4.22;;
10687;SDS011;5392;42.688;23.298;2024-01-25T12:33:22;8.98;;;3.20;;
10687;SDS011;5392;42.688;23.298;2024-01-25T12:35:47;9.02;;;3.97;;
10687;SDS011;5392;42.688;23.298;2024-01-25T12:38:13;6.30;;;3.03;;
10687;SDS011;5392;42.688;23.298;2024-01-25T12:40:38;8.30;;;3.28;;
10687;SDS011;5392;42.688;23.298;2024-01-25T12:43:06;9.70;;;3.45;;
10687;SDS011;5392;42.688;23.298;2024-01-25T12:45:32;8.38;;;2.67;;
10687;SDS011;5392;42.688;23.298;2024-01-25T12:47:58;6.32;;;2.25;;
10687;SDS011;5392;42.688;23.298;2024-01-25T12:50:23;6.35;;;2.53;;
10687;SDS011;5392;42.688;23.298;2024-01-25T12:52:49;6.78;;;2.70;;
10687;SDS011;5392;42.688;23.298;2024-01-25T12:55:16;11.75;;;3.33;;
10687;SDS011;5392;42.688;23.298;2024-01-25T12:57:41;24.23;;;8.30;;
10687;SDS011;5392;42.688;23.298;2024-01-25T13:00:07;27.83;;;11.23;;
10687;SDS011;5392;42.688;23.298;2024-01-25T13:02:33;33.03;;;12.77;;
10687;SDS011;5392;42.688;23.298;2024-01-25T13:04:58;13.00;;;4.63;;
10687;SDS011;5392;42.688;23.298;2024-01-25T13:07:24;7.43;;;2.33;;
10687;SDS011;5392;42.688;23.298;2024-01-25T13:09:49;8.27;;;2.85;;
10687;SDS011;5392;42.688;23.298;2024-01-25T13:12:15;6.03;;;2.25;;
10687;SDS011;5392;42.688;23.298;2024-01-25T13:14:40;4.03;;;1.90;;
10687;SDS011;5392;42.688;23.298;2024-01-25T13:17:06;5.80;;;2.45;;
10687;SDS011;5392;42.688;23.298;2024-01-25T13:19:33;12.07;;;3.35;;
10687;SDS011;5392;42.688;23.298;2024-01-25T13:24:24;6.07;;;2.67;;
10687;SDS011;5392;42.688;23.298;2024-01-25T13:26:50;11.40;;;2.97;;
10687;SDS011;5392;42.688;23.298;2024-01-25T13:29:15;5.05;;;2.55;;
10687;SDS011;5392;42.688;23.298;2024-01-25T13:31:41;8.57;;;2.95;;
10687;SDS011;5392;42.688;23.298;2024-01-25T13:34:07;7.68;;;2.83;;
10687;SDS011;5392;42.688;23.298;2024-01-25T13:36:32;10.02;;;2.88;;
10687;SDS011;5392;42.688;23.298;2024-01-25T13:38:58;8.07;;;2.60;;
10687;SDS011;5392;42.688;23.298;2024-01-25T13:41:23;4.80;;;2.45;;
10687;SDS011;5392;42.688;23.298;2024-01-25T13:43:49;5.15;;;2.28;;
10687;SDS011;5392;42.688;23.298;2024-01-25T13:46:14;5.93;;;2.40;;
10687;SDS011;5392;42.688;23.298;2024-01-25T13:48:40;6.32;;;2.72;;
10687;SDS011;5392;42.688;23.298;2024-01-25T13:51:05;5.90;;;2.83;;
10687;SDS011;5392;42.688;23.298;2024-01-25T13:53:31;37.58;;;12.75;;
10687;SDS011;5392;42.688;23.298;2024-01-25T13:55:56;24.98;;;9.52;;
10687;SDS011;5392;42.688;23.298;2024-01-25T13:58:22;13.32;;;6.60;;
10687;SDS011;5392;42.688;23.298;2024-01-25T14:00:47;11.82;;;4.55;;
10687;SDS011;5392;42.688;23.298;2024-01-25T14:03:14;7.18;;;4.22;;
10687;SDS011;5392;42.688;23.298;2024-01-25T14:05:40;4.72;;;2.97;;
10687;SDS011;5392;42.688;23.298;2024-01-25T14:08:06;5.32;;;2.80;;
10687;SDS011;5392;42.688;23.298;2024-01-25T14:10:31;9.48;;;3.03;;
10687;SDS011;5392;42.688;23.298;2024-01-25T14:12:59;6.35;;;3.30;;
10687;SDS011;5392;42.688;23.298;2024-01-25T14:15:25;9.50;;;3.47;;
10687;SDS011;5392;42.688;23.298;2024-01-25T14:17:50;11.38;;;3.95;;
10687;SDS011;5392;42.688;23.298;2024-01-25T14:20:16;9.70;;;3.28;;
10687;SDS011;5392;42.688;23.298;2024-01-25T14:22:43;6.90;;;2.92;;
10687;SDS011;5392;42.688;23.298;2024-01-25T14:25:08;8.23;;;3.33;;
10687;SDS011;5392;42.688;23.298;2024-01-25T14:27:34;10.43;;;3.60;;
10687;SDS011;5392;42.688;23.298;2024-01-25T14:30:00;6.88;;;2.45;;
10687;SDS011;5392;42.688;23.298;2024-01-25T14:32:26;6.47;;;2.67;;
10687;SDS011;5392;42.688;23.298;2024-01-25T14:34:51;5.65;;;3.08;;
10687;SDS011;5392;42.688;23.298;2024-01-25T14:37:17;10.80;;;2.97;;
10687;SDS011;5392;42.688;23.298;2024-01-25T14:39:43;7.95;;;2.88;;
10687;SDS011;5392;42.688;23.298;2024-01-25T14:42:11;7.43;;;3.22;;
10687;SDS011;5392;42.688;23.298;2024-01-25T14:44:37;8.02;;;3.28;;
10687;SDS011;5392;42.688;23.298;2024-01-25T14:47:04;15.35;;;3.33;;
10687;SDS011;5392;42.688;23.298;2024-01-25T14:49:29;5.53;;;2.72;;
10687;SDS011;5392;42.688;23.298;2024-01-25T14:51:55;9.13;;;3.17;;
10687;SDS011;5392;42.688;23.298;2024-01-25T14:54:20;6.68;;;3.00;;